createdAt,value
2019-05-11T00:00:58.818Z,100125.41
2019-05-11T00:03:30.491Z,100126.25
2019-05-11T00:06:02.962Z,100124.02
2019-05-11T00:08:34.515Z,100129.77
2019-05-11T00:11:05.883Z,100135.64
2019-05-11T00:13:37.019Z,100143.34
2019-05-11T00:16:08.781Z,100136.35
2019-05-11T00:18:40.240Z,100134.04
2019-05-11T00:21:11.750Z,100136.75
2019-05-11T00:23:43.248Z,100139.05
2019-05-11T00:26:14.799Z,100129.97
2019-05-11T00:28:46.463Z,100129.70
2019-05-11T00:31:17.924Z,100133.86
2019-05-11T00:33:49.063Z,100136.83
2019-05-11T00:36:20.525Z,100142.06
2019-05-11T00:38:51.870Z,100143.24
2019-05-11T00:41:23.054Z,100144.99
2019-05-11T00:43:54.268Z,100145.34
2019-05-11T00:46:25.724Z,100140.52
2019-05-11T00:48:57.094Z,100144.00
2019-05-11T00:51:28.432Z,100143.89
2019-05-11T00:53:59.990Z,100143.81
2019-05-11T00:56:31.049Z,100147.20
2019-05-11T00:59:02.185Z,100150.95
2019-05-11T01:01:34.561Z,100146.80
2019-05-11T01:04:05.942Z,100144.58
2019-05-11T01:06:37.757Z,100147.05
2019-05-11T01:09:09.129Z,100150.17
2019-05-11T01:11:40.682Z,100154.55
2019-05-11T01:14:12.347Z,100151.84
2019-05-11T01:16:43.486Z,100153.75
2019-05-11T01:19:14.841Z,100154.41
2019-05-11T01:21:46.308Z,100157.85
2019-05-11T01:24:17.552Z,100162.36
2019-05-11T01:26:49.726Z,100165.77
2019-05-11T01:29:20.964Z,100164.27
2019-05-11T01:31:53.544Z,100157.54
2019-05-11T01:34:25.000Z,100163.20
2019-05-11T01:36:56.561Z,100158.47
2019-05-11T01:39:28.117Z,100160.89
2019-05-11T01:41:59.262Z,100162.08
2019-05-11T01:44:30.440Z,100163.67
2019-05-11T01:47:02.095Z,100163.00
2019-05-11T01:49:33.323Z,100161.03
2019-05-11T01:52:04.474Z,100157.98
2019-05-11T01:54:36.538Z,100164.45
2019-05-11T01:57:07.792Z,100159.63
2019-05-11T01:59:38.942Z,100164.89
2019-05-11T02:02:10.605Z,100165.98
2019-05-11T02:04:41.991Z,100162.73
2019-05-11T02:07:13.513Z,100164.67
2019-05-11T02:09:44.651Z,100168.83
2019-05-11T02:12:16.118Z,100165.23
2019-05-11T02:14:47.359Z,100162.23
2019-05-11T02:17:18.710Z,100158.83
2019-05-11T02:19:50.168Z,100161.96
2019-05-11T02:22:21.627Z,100158.01
2019-05-11T02:24:53.283Z,100162.39
2019-05-11T02:27:24.647Z,100154.80
2019-05-11T02:29:55.778Z,100164.49
2019-05-11T02:32:27.442Z,100171.97
2019-05-11T02:34:58.930Z,100167.98
2019-05-11T02:37:30.051Z,100168.37
2019-05-11T02:40:01.657Z,100163.22
2019-05-11T02:42:33.163Z,100166.66
2019-05-11T02:45:06.630Z,100169.95
2019-05-11T02:47:37.867Z,100170.81
2019-05-11T02:50:09.161Z,100165.36
2019-05-11T02:52:41.847Z,100174.15
2019-05-11T02:55:13.226Z,100176.09
2019-05-11T02:57:44.761Z,100176.95
2019-05-11T03:00:19.393Z,100175.80
2019-05-11T03:02:51.057Z,100175.20
2019-05-11T03:05:22.810Z,100179.63
2019-05-11T03:07:54.481Z,100181.17
2019-05-11T03:10:26.032Z,100173.48
2019-05-11T03:12:57.406Z,100182.94
2019-05-11T03:15:28.818Z,100186.89
2019-05-11T03:18:02.181Z,100189.48
2019-05-11T03:20:33.594Z,100198.95
2019-05-11T03:23:05.257Z,100195.92
2019-05-11T03:25:36.610Z,100197.11
2019-05-11T03:28:07.957Z,100200.13
2019-05-11T03:30:39.326Z,100196.17
2019-05-11T03:33:10.566Z,100202.80
2019-05-11T03:35:42.019Z,100206.40
2019-05-11T03:38:13.572Z,100207.88
2019-05-11T03:40:44.723Z,100222.67
2019-05-11T03:43:16.279Z,100210.23
2019-05-11T03:45:47.630Z,100215.77
2019-05-11T03:48:19.203Z,100216.86
2019-05-11T03:50:50.433Z,100216.69
2019-05-11T03:53:22.013Z,100215.41
2019-05-11T03:55:53.338Z,100206.59
2019-05-11T03:58:26.599Z,100206.45
2019-05-11T04:00:58.407Z,100213.16
2019-05-11T04:03:29.971Z,100213.84
2019-05-11T04:06:01.626Z,100216.05
2019-05-11T04:08:35.956Z,100217.73
2019-05-11T04:11:07.822Z,100218.31
2019-05-11T04:13:39.584Z,100215.89
2019-05-11T04:16:11.340Z,100216.27
2019-05-11T04:18:42.898Z,100217.45
2019-05-11T04:21:14.457Z,100228.41
2019-05-11T04:23:45.842Z,100232.00
2019-05-11T04:26:17.371Z,100224.91
2019-05-11T04:28:49.050Z,100237.69
2019-05-11T04:31:20.278Z,100236.52
2019-05-11T04:33:52.788Z,100239.08
2019-05-11T04:36:25.764Z,100232.67
2019-05-11T04:38:57.227Z,100234.39
2019-05-11T04:41:28.970Z,100237.51
2019-05-11T04:44:00.833Z,100230.13
2019-05-11T04:46:32.595Z,100240.65
2019-05-11T04:49:04.072Z,100241.17
2019-05-11T04:51:35.503Z,100238.67
2019-05-11T04:54:07.063Z,100242.73
2019-05-11T04:56:38.931Z,100243.58
2019-05-11T04:59:10.388Z,100247.25
2019-05-11T05:01:41.649Z,100250.17
2019-05-11T05:04:14.368Z,100245.97
2019-05-11T05:06:58.845Z,100253.12
2019-05-11T05:09:19.298Z,100253.39
2019-05-11T05:11:50.955Z,100258.97
2019-05-11T05:14:25.161Z,100259.94
2019-05-11T05:16:56.713Z,100261.86
2019-05-11T05:19:28.262Z,100271.20
2019-05-11T05:22:03.898Z,100271.63
2019-05-11T05:24:36.485Z,100275.97
2019-05-11T05:27:08.252Z,100274.96
2019-05-11T05:29:40.640Z,100284.16
2019-05-11T05:32:12.502Z,100288.26
2019-05-11T05:34:45.379Z,100287.27
2019-05-11T05:37:17.142Z,100288.40
2019-05-11T05:39:50.186Z,100293.31
2019-05-11T05:42:22.181Z,100294.94
2019-05-11T05:44:53.775Z,100295.13
2019-05-11T05:47:24.969Z,100305.08
2019-05-11T05:49:56.784Z,100306.25
2019-05-11T05:52:31.193Z,100306.86
2019-05-11T05:55:05.181Z,100303.30
2019-05-11T05:57:36.534Z,100306.88
2019-05-11T06:00:08.295Z,100308.20
2019-05-11T06:02:41.692Z,100308.52
2019-05-11T06:05:13.574Z,100310.63
2019-05-11T06:07:45.314Z,100317.30
2019-05-11T06:10:16.874Z,100312.33
2019-05-11T06:12:48.230Z,100317.39
2019-05-11T06:15:19.759Z,100317.69
2019-05-11T06:17:51.451Z,100317.06
2019-05-11T06:20:24.447Z,100315.45
2019-05-11T06:22:55.691Z,100311.84
2019-05-11T06:25:27.859Z,100316.23
2019-05-11T06:28:00.033Z,100325.41
2019-05-11T06:30:32.717Z,100326.56
2019-05-11T06:33:10.328Z,100321.83
2019-05-11T06:35:42.807Z,100324.30
2019-05-11T06:38:15.211Z,100323.61
2019-05-11T06:40:48.464Z,100325.84
2019-05-11T06:43:19.753Z,100331.54
2019-05-11T06:45:50.898Z,100328.25
2019-05-11T06:48:22.450Z,100328.66
2019-05-11T06:50:54.636Z,100325.54
2019-05-11T06:53:28.327Z,100325.31
2019-05-11T06:56:00.801Z,100323.73
2019-05-11T06:58:33.063Z,100323.48
2019-05-11T07:01:07.303Z,100326.69
2019-05-11T07:03:40.004Z,100323.64
2019-05-11T07:06:12.251Z,100323.31
2019-05-11T07:08:44.680Z,100325.67
2019-05-11T07:11:16.407Z,100329.77
2019-05-11T07:13:48.243Z,100328.80
2019-05-11T07:16:19.487Z,100329.05
2019-05-11T07:18:50.970Z,100327.85
2019-05-11T07:21:23.447Z,100326.99
2019-05-11T07:23:55.000Z,100327.97
2019-05-11T07:26:30.035Z,100327.42
2019-05-11T07:29:01.263Z,100322.31
2019-05-11T07:31:33.027Z,100329.58
2019-05-11T07:34:08.114Z,100322.05
2019-05-11T07:36:39.438Z,100330.88
2019-05-11T07:39:11.212Z,100332.59
2019-05-11T07:41:42.626Z,100324.45
2019-05-11T07:44:14.087Z,100331.92
2019-05-11T07:46:45.539Z,100334.59
2019-05-11T07:49:17.962Z,100336.08
2019-05-11T07:51:49.161Z,100339.34
2019-05-11T07:54:20.494Z,100337.55
2019-05-11T07:56:51.638Z,100339.20
2019-05-11T07:59:23.094Z,100344.98
2019-05-11T08:01:54.651Z,100346.97
2019-05-11T08:04:28.588Z,100353.48
2019-05-11T08:06:59.417Z,100350.17
2019-05-11T08:09:32.764Z,100354.27
2019-05-11T08:12:05.195Z,100348.20
2019-05-11T08:14:55.898Z,100354.32
2019-05-11T08:17:09.928Z,100347.77
2019-05-11T08:19:42.092Z,100348.11
2019-05-11T08:22:13.546Z,100345.97
2019-05-11T08:24:44.807Z,100350.17
2019-05-11T08:27:18.506Z,100350.70
2019-05-11T08:29:48.959Z,100346.48
2019-05-11T08:32:20.584Z,100350.39
2019-05-11T08:34:51.849Z,100346.70
2019-05-11T08:37:23.293Z,100334.58
2019-05-11T08:39:54.545Z,100336.16
2019-05-11T08:42:28.670Z,100341.30
2019-05-11T08:45:15.287Z,100346.45
2019-05-11T08:47:31.561Z,100343.59
2019-05-11T08:50:08.034Z,100353.92
2019-05-11T08:52:40.178Z,100352.41
2019-05-11T08:55:11.347Z,100350.67
2019-05-11T08:57:42.932Z,100355.50
2019-05-11T09:00:14.599Z,100351.63
2019-05-11T09:02:50.536Z,100360.07
2019-05-11T09:05:20.652Z,100358.44
2019-05-11T09:07:52.641Z,100357.12
2019-05-11T09:10:24.595Z,100360.38
2019-05-11T09:12:55.962Z,100357.14
2019-05-11T09:15:36.282Z,100359.85
2019-05-11T09:18:01.855Z,100358.90
2019-05-11T09:20:33.790Z,100365.63
2019-05-11T09:23:05.141Z,100368.67
2019-05-11T09:25:38.459Z,100369.79
2019-05-11T09:28:09.700Z,100379.16
2019-05-11T09:30:40.999Z,100369.97
2019-05-11T09:33:17.719Z,100370.67
2019-05-11T09:35:52.510Z,100375.14
2019-05-11T09:38:19.996Z,100377.81
2019-05-11T09:40:51.363Z,100374.14
2019-05-11T09:43:22.796Z,100374.05
2019-05-11T09:45:54.143Z,100371.22
2019-05-11T09:48:25.611Z,100386.05
2019-05-11T09:50:58.759Z,100385.32
2019-05-11T09:53:30.799Z,100381.53
2019-05-11T09:56:01.900Z,100378.35
2019-05-11T09:58:33.348Z,100383.72
2019-05-11T10:01:05.519Z,100384.28
2019-05-11T10:03:38.721Z,100386.83
2019-05-11T10:06:10.272Z,100387.36
2019-05-11T10:08:41.929Z,100390.12
2019-05-11T10:11:13.593Z,100385.45
2019-05-11T10:13:47.773Z,100388.25
2019-05-11T10:16:21.661Z,100383.09
2019-05-11T10:18:58.987Z,100385.84
2019-05-11T10:21:30.360Z,100386.83
2019-05-11T10:24:02.759Z,100389.42
2019-05-11T10:26:34.947Z,100388.09
2019-05-11T10:29:07.918Z,100391.73
2019-05-11T10:31:39.858Z,100391.08
2019-05-11T10:34:12.658Z,100388.06
2019-05-11T10:36:44.191Z,100392.08
2019-05-11T10:39:18.433Z,100392.58
2019-05-11T10:41:49.019Z,100390.67
2019-05-11T10:44:20.692Z,100397.80
2019-05-11T10:46:52.259Z,100398.66
2019-05-11T10:49:23.790Z,100389.03
2019-05-11T10:51:55.224Z,100391.59
2019-05-11T10:54:28.663Z,100397.57
2019-05-11T10:57:00.077Z,100398.96
2019-05-11T10:59:31.221Z,100393.89
2019-05-11T11:02:02.563Z,100393.75
2019-05-11T11:04:33.926Z,100391.58
2019-05-11T11:07:07.611Z,100395.03
2019-05-11T11:09:41.227Z,100404.66
2019-05-11T11:12:12.584Z,100399.11
2019-05-11T11:14:44.251Z,100397.67
2019-05-11T11:17:15.592Z,100406.34
2019-05-11T11:19:48.595Z,100407.05
2019-05-11T11:22:36.148Z,100405.52
2019-05-11T11:24:53.114Z,100412.81
2019-05-11T11:27:24.193Z,100409.47
2019-05-11T11:29:58.126Z,100411.36
2019-05-11T11:32:28.701Z,100412.36
2019-05-11T11:35:01.469Z,100414.15
2019-05-11T11:37:33.048Z,100408.62
2019-05-11T11:40:08.525Z,100419.77
2019-05-11T11:42:40.517Z,100423.96
2019-05-11T11:45:11.700Z,100416.62
2019-05-11T11:47:43.456Z,100427.05
2019-05-11T11:50:14.613Z,100431.68
2019-05-11T11:52:47.679Z,100436.77
2019-05-11T11:55:19.662Z,100439.38
2019-05-11T11:57:51.110Z,100433.39
2019-05-11T12:00:22.472Z,100438.11
2019-05-11T12:02:54.155Z,100435.27
2019-05-11T12:05:25.574Z,100439.91
2019-05-11T12:07:57.975Z,100438.02
2019-05-11T12:10:29.394Z,100440.74
2019-05-11T12:13:00.855Z,100444.22
2019-05-11T12:15:32.709Z,100442.49
2019-05-11T12:18:03.955Z,100445.22
2019-05-11T12:20:35.206Z,100450.18
2019-05-11T12:23:08.679Z,100454.25
2019-05-11T12:25:40.773Z,100454.11
2019-05-11T12:28:12.127Z,100457.84
2019-05-11T12:30:43.278Z,100457.06
2019-05-11T12:33:14.830Z,100451.70
2019-05-11T12:35:47.999Z,100453.87
2019-05-11T12:38:18.764Z,100454.68
2019-05-11T12:40:50.117Z,100454.83
2019-05-11T12:43:22.621Z,100462.39
2019-05-11T12:45:53.944Z,100464.45
2019-05-11T12:48:25.610Z,100470.59
2019-05-11T12:50:58.805Z,100467.63
2019-05-11T12:53:30.147Z,100464.97
2019-05-11T12:56:01.812Z,100465.86
2019-05-11T12:58:33.687Z,100473.75
2019-05-11T13:01:05.231Z,100470.64
2019-05-11T13:03:38.554Z,100475.34
2019-05-11T13:06:09.576Z,100476.53
2019-05-11T13:08:40.824Z,100474.32
2019-05-11T13:11:12.381Z,100480.87
2019-05-11T13:13:44.149Z,100478.08
2019-05-11T13:16:17.657Z,100480.23
2019-05-11T13:18:48.771Z,100479.17
2019-05-11T13:21:20.204Z,100471.44
2019-05-11T13:23:51.907Z,100480.07
2019-05-11T13:26:23.257Z,100477.67
2019-05-11T13:28:54.609Z,100481.08
2019-05-11T13:31:27.798Z,100481.67
2019-05-11T13:33:59.056Z,100479.58
2019-05-11T13:36:30.361Z,100471.48
2019-05-11T13:39:02.063Z,100474.91
2019-05-11T13:41:33.549Z,100480.14
2019-05-11T13:44:05.077Z,100481.41
2019-05-11T13:46:36.223Z,100489.01
2019-05-11T13:49:08.775Z,100485.08
2019-05-11T13:51:39.947Z,100482.66
2019-05-11T13:54:11.710Z,100480.73
2019-05-11T13:56:43.161Z,100482.83
2019-05-11T13:59:14.622Z,100476.81
2019-05-11T14:01:47.813Z,100483.38
2019-05-11T14:04:18.507Z,100479.45
2019-05-11T14:06:49.600Z,100478.78
2019-05-11T14:09:20.753Z,100479.68
2019-05-11T14:11:52.329Z,100478.69
2019-05-11T14:14:23.646Z,100479.02
2019-05-11T14:16:55.103Z,100476.23
2019-05-11T14:19:29.016Z,100480.96
2019-05-11T14:22:00.265Z,100479.30
2019-05-11T14:24:31.605Z,100486.98
2019-05-11T14:27:03.178Z,100490.88
2019-05-11T14:29:34.429Z,100496.41
2019-05-11T14:32:05.775Z,100496.41
2019-05-11T14:34:38.736Z,100495.01
2019-05-11T14:37:11.039Z,100497.03
2019-05-11T14:39:42.691Z,100503.75
2019-05-11T14:42:14.045Z,100503.77
2019-05-11T14:44:48.287Z,100505.53
2019-05-11T14:47:19.518Z,100505.87
2019-05-11T14:49:50.977Z,100499.38
2019-05-11T14:52:22.529Z,100509.09
2019-05-11T14:54:53.780Z,100504.56
2019-05-11T14:57:24.922Z,100507.09
2019-05-11T14:59:58.458Z,100511.08
2019-05-11T15:02:49.102Z,100507.98
2019-05-11T15:05:21.018Z,100510.49
2019-05-11T15:07:53.116Z,100506.38
2019-05-11T15:10:24.521Z,100516.64
2019-05-11T15:12:59.085Z,100514.19
2019-05-11T15:15:32.027Z,100507.17
2019-05-11T15:18:03.789Z,100503.88
2019-05-11T15:20:35.143Z,100507.05
2019-05-11T15:23:08.598Z,100510.05
2019-05-11T15:25:39.790Z,100515.77
2019-05-11T15:28:11.040Z,100513.53
2019-05-11T15:30:42.490Z,100507.59
2019-05-11T15:33:14.050Z,100507.78
2019-05-11T15:35:47.835Z,100510.02
2019-05-11T15:38:19.203Z,100508.09
2019-05-11T15:40:50.684Z,100514.81
2019-05-11T15:43:22.111Z,100517.39
2019-05-11T15:45:53.462Z,100519.52
2019-05-11T15:48:24.816Z,100515.61
2019-05-11T15:50:57.800Z,100519.70
2019-05-11T15:53:29.056Z,100518.87
2019-05-11T15:56:00.705Z,100526.28
2019-05-11T15:58:32.160Z,100528.61
2019-05-11T16:01:03.818Z,100530.81
2019-05-11T16:03:35.385Z,100532.22
2019-05-11T16:06:07.913Z,100531.02
2019-05-11T16:08:39.201Z,100527.41
2019-05-11T16:11:10.652Z,100527.98
2019-05-11T16:13:41.916Z,100536.56
2019-05-11T16:16:13.265Z,100539.27
2019-05-11T16:18:44.604Z,100535.30
2019-05-11T16:21:18.103Z,100543.58
2019-05-11T16:23:49.572Z,100540.47
2019-05-11T16:26:21.830Z,100542.56
2019-05-11T16:28:53.281Z,100544.38
2019-05-11T16:31:24.953Z,100540.51
2019-05-11T16:33:58.753Z,100549.86
2019-05-11T16:36:29.492Z,100544.08
2019-05-11T16:39:01.146Z,100547.11
2019-05-11T16:41:33.117Z,100556.88
2019-05-11T16:44:04.775Z,100550.22
2019-05-11T16:46:38.957Z,100551.56
2019-05-11T16:49:24.895Z,100555.97
2019-05-11T16:51:43.507Z,100559.08
2019-05-11T16:54:15.092Z,100573.70
2019-05-11T16:56:48.687Z,100575.72
2019-05-11T16:59:19.747Z,100571.72
2019-05-11T17:01:51.400Z,100578.39
2019-05-11T17:04:23.071Z,100573.30
2019-05-11T17:06:57.785Z,100572.02
2019-05-11T17:09:29.035Z,100569.16
2019-05-11T17:12:00.697Z,100559.83
2019-05-11T17:14:32.353Z,100565.05
2019-05-11T17:17:04.019Z,100565.03
2019-05-11T17:19:45.346Z,100564.25
2019-05-11T17:22:08.583Z,100565.40
2019-05-11T17:24:40.635Z,100574.80
2019-05-11T17:27:12.189Z,100584.18
2019-05-11T17:29:44.153Z,100588.12
2019-05-11T17:32:17.750Z,100592.38
2019-05-11T17:34:48.699Z,100596.39
2019-05-11T17:37:19.952Z,100593.72
2019-05-11T17:39:51.093Z,100598.70
2019-05-11T17:42:22.259Z,100607.55
2019-05-11T17:44:53.699Z,100607.97
2019-05-11T17:47:25.163Z,100606.13
2019-05-11T17:50:03.272Z,100613.81
2019-05-11T17:52:29.397Z,100617.61
2019-05-11T17:55:00.649Z,100619.32
2019-05-11T17:57:32.003Z,100617.02
2019-05-11T18:00:04.474Z,100624.80
2019-05-11T18:02:38.975Z,100624.94
2019-05-11T18:05:09.648Z,100614.05
2019-05-11T18:07:41.170Z,100624.52
2019-05-11T18:10:12.338Z,100626.78
2019-05-11T18:12:44.000Z,100627.66
2019-05-11T18:15:18.326Z,100623.75
2019-05-11T18:17:49.033Z,100623.75
2019-05-11T18:20:22.146Z,100631.38
2019-05-11T18:22:53.570Z,100638.13
2019-05-11T18:25:28.690Z,100643.80
2019-05-11T18:28:00.211Z,100637.05
2019-05-11T18:30:31.654Z,100637.05
2019-05-11T18:33:03.104Z,100648.13
2019-05-11T18:35:34.364Z,100653.55
2019-05-11T18:38:08.533Z,100653.70
2019-05-11T18:40:39.580Z,100654.30
2019-05-11T18:43:12.399Z,100645.75
2019-05-11T18:45:43.745Z,100651.27
2019-05-11T18:48:15.519Z,100652.77
2019-05-11T18:50:49.068Z,100647.26
2019-05-11T18:53:23.149Z,100659.41
2019-05-11T18:55:55.539Z,100659.78
2019-05-11T18:58:29.648Z,100659.20
2019-05-11T19:01:01.307Z,100659.20
2019-05-11T19:03:34.612Z,100656.68
2019-05-11T19:06:05.959Z,100656.25
2019-05-11T19:08:38.496Z,100650.81
2019-05-11T19:11:09.828Z,100650.81
2019-05-11T19:13:42.077Z,100659.62
2019-05-11T19:16:13.483Z,100660.20
2019-05-11T19:18:44.621Z,100660.20
2019-05-11T19:21:18.045Z,100660.64
2019-05-11T19:23:49.624Z,100660.64
2019-05-11T19:26:21.904Z,100655.30
2019-05-11T19:28:53.046Z,100661.05
2019-05-11T19:31:27.905Z,100665.94
2019-05-11T19:33:58.619Z,100665.94
2019-05-11T19:36:30.282Z,100670.50
2019-05-11T19:39:01.722Z,100672.60
2019-05-11T19:41:35.025Z,100684.34
2019-05-11T19:44:08.578Z,100687.00
2019-05-11T19:46:39.773Z,100683.23
2019-05-11T19:49:11.350Z,100692.98
2019-05-11T19:51:43.114Z,100686.76
2019-05-11T19:54:18.681Z,100687.82
2019-05-11T19:56:52.287Z,100687.34
2019-05-11T19:59:23.235Z,100690.34
2019-05-11T20:01:57.254Z,100691.41
2019-05-11T20:04:28.491Z,100687.92
2019-05-11T20:07:00.053Z,100690.58
2019-05-11T20:09:32.031Z,100689.06
2019-05-11T20:12:03.555Z,100694.87
2019-05-11T20:14:37.288Z,100692.41
2019-05-11T20:17:08.954Z,100699.20
2019-05-11T20:19:40.828Z,100693.45
2019-05-11T20:22:12.364Z,100687.43
2019-05-11T20:24:43.854Z,100684.19
2019-05-11T20:27:15.551Z,100691.09
2019-05-11T20:29:47.745Z,100691.77
2019-05-11T20:32:19.172Z,100691.84
2019-05-11T20:34:50.466Z,100688.55
2019-05-11T20:37:23.004Z,100698.95
2019-05-11T20:39:54.163Z,100695.34
2019-05-11T20:42:25.400Z,100697.80
2019-05-11T20:44:58.600Z,100698.66
2019-05-11T20:47:31.179Z,100701.25
2019-05-11T20:50:02.526Z,100698.47
2019-05-11T20:52:33.977Z,100696.66
2019-05-11T20:55:08.890Z,100693.02
2019-05-11T20:57:39.738Z,100698.81
2019-05-11T21:00:11.702Z,100701.55
2019-05-11T21:02:43.234Z,100700.95
2019-05-11T21:05:14.426Z,100701.34
2019-05-11T21:07:45.883Z,100703.25
2019-05-11T21:10:17.036Z,100701.55
2019-05-11T21:12:48.789Z,100706.55
2019-05-11T21:15:20.450Z,100704.56
2019-05-11T21:17:51.904Z,100713.26
2019-05-11T21:20:23.148Z,100713.26
2019-05-11T21:22:54.811Z,100719.22
2019-05-11T21:25:28.604Z,100719.41
2019-05-11T21:27:59.251Z,100718.02
2019-05-11T21:30:30.904Z,100718.73
2019-05-11T21:33:04.938Z,100718.33
2019-05-11T21:35:38.440Z,100722.64
2019-05-11T21:38:08.948Z,100723.28
2019-05-11T21:40:41.012Z,100719.80
2019-05-11T21:43:14.000Z,100716.69
2019-05-11T21:45:45.258Z,100720.43
2019-05-11T21:48:16.700Z,100722.03
2019-05-11T21:50:48.282Z,100718.77
2019-05-11T21:53:19.740Z,100726.83
2019-05-11T21:55:51.066Z,100726.19
2019-05-11T21:58:22.724Z,100726.41
2019-05-11T22:00:54.084Z,100724.58
2019-05-11T22:03:28.085Z,100724.03
2019-05-11T22:06:00.256Z,100724.39
2019-05-11T22:08:31.710Z,100722.83
2019-05-11T22:11:04.393Z,100715.02
2019-05-11T22:13:37.784Z,100720.41
2019-05-11T22:16:08.793Z,100720.73
2019-05-11T22:18:40.187Z,100722.34
2019-05-11T22:21:11.559Z,100722.50
2019-05-11T22:23:43.093Z,100722.50
2019-05-11T22:26:14.767Z,100721.29
2019-05-11T22:28:48.205Z,100720.44
2019-05-11T22:31:19.502Z,100722.28
2019-05-11T22:33:51.059Z,100720.79
2019-05-11T22:36:22.308Z,100716.26
2019-05-11T22:38:53.868Z,100724.22
2019-05-11T22:41:25.314Z,100718.45
2019-05-11T22:43:56.982Z,100719.33
2019-05-11T22:46:28.536Z,100714.96
2019-05-11T22:49:00.091Z,100715.55
2019-05-11T22:51:31.442Z,100721.32
2019-05-11T22:54:02.995Z,100718.61
2019-05-11T22:56:38.003Z,100716.34
2019-05-11T22:59:09.388Z,100715.96
2019-05-11T23:01:40.740Z,100713.20
2019-05-11T23:04:12.018Z,100707.84
2019-05-11T23:06:43.341Z,100716.67
2019-05-11T23:09:14.808Z,100709.23
2019-05-11T23:11:48.232Z,100717.34
2019-05-11T23:14:20.021Z,100721.49
2019-05-11T23:16:51.210Z,100724.41
2019-05-11T23:19:22.660Z,100718.33
2019-05-11T23:21:54.217Z,100712.97
2019-05-11T23:24:25.574Z,100711.59
2019-05-11T23:26:57.030Z,100712.06
2019-05-11T23:29:28.584Z,100711.88
2019-05-11T23:32:00.039Z,100722.59
2019-05-11T23:34:31.594Z,100721.23
2019-05-11T23:37:02.647Z,100716.57
2019-05-11T23:39:34.196Z,100725.59
2019-05-11T23:42:05.353Z,100728.91
2019-05-11T23:44:36.898Z,100729.56
2019-05-11T23:47:08.249Z,100731.99
2019-05-11T23:49:39.601Z,100735.08
2019-05-11T23:52:10.854Z,100730.20
2019-05-11T23:54:42.207Z,100724.27
2019-05-11T23:57:13.867Z,100729.86
2019-05-11T23:59:47.680Z,100729.42
